Time;durP1;ratioP1;P1;durP2;ratioP2;P2;SDS_P1;SDS_P2;PMS_P1;PMS_P2;Temp;Humidity;BMP_temperature;BMP_pressure;BME280_temperature;BME280_humidity;BME280_pressure;Samples;Min_cycle;Max_cycle;Signal;HPM_P1;HPM_P2
2022/08/13 00:02:09;;;;;;;1.52;0.80;;;31.50;40.00;;;;;;20872838;28;20291;-72
2022/08/13 00:22:38;;;;;;;1.08;0.63;;;31.50;39.90;;;;;;20893150;28;20036;-73
2022/08/13 00:32:38;;;;;;;1.05;0.70;;;31.50;39.80;;;;;;20888115;28;20454;-73
2022/08/13 00:42:39;;;;;;;0.60;0.60;;;31.50;39.80;;;;;;20870949;28;20083;-73
2022/08/13 00:52:40;;;;;;;0.73;0.70;;;31.50;39.70;;;;;;20870506;28;20037;-73
2022/08/13 01:02:51;;;;;;;0.95;0.73;;;31.50;39.70;;;;;;20886927;28;20043;-73
2022/08/13 01:12:52;;;;;;;0.70;0.68;;;31.50;39.60;;;;;;21286459;22;20037;-72
2022/08/13 01:22:52;;;;;;;1.38;0.80;;;31.50;39.60;;;;;;20903357;28;20033;-72
2022/08/13 01:32:54;;;;;;;0.97;0.67;;;31.50;39.60;;;;;;20902731;28;20044;-72
2022/08/13 01:42:55;;;;;;;0.60;0.57;;;31.50;39.50;;;;;;20919232;28;20091;-72
2022/08/13 01:53:07;;;;;;;1.17;0.90;;;31.50;39.50;;;;;;20868311;28;20061;-72
2022/08/13 02:03:09;;;;;;;1.43;0.70;;;31.50;39.40;;;;;;20883271;28;20466;-72
2022/08/13 02:13:16;;;;;;;1.10;0.90;;;31.50;39.30;;;;;;20900754;28;20055;-72
2022/08/13 02:23:20;;;;;;;1.40;1.00;;;31.50;39.30;;;;;;20881720;28;20094;-72
2022/08/13 02:33:20;;;;;;;0.80;0.75;;;31.50;39.30;;;;;;20880732;28;20529;-72
2022/08/13 02:43:21;;;;;;;1.48;0.88;;;31.50;39.30;;;;;;20914871;28;20067;-72
2022/08/13 02:53:23;;;;;;;1.65;0.88;;;31.50;39.20;;;;;;20879863;28;20068;-73
2022/08/13 03:03:26;;;;;;;0.90;0.70;;;31.50;39.90;;;;;;20862471;28;20044;-71
2022/08/13 03:13:29;;;;;;;1.58;1.10;;;31.40;39.10;;;;;;20877945;28;20080;-72
2022/08/13 03:23:30;;;;;;;0.95;0.88;;;31.40;39.10;;;;;;20877613;28;20041;-72
2022/08/13 03:33:31;;;;;;;1.08;0.68;;;31.40;39.00;;;;;;20892059;28;20463;-73
2022/08/13 03:43:32;;;;;;;1.20;1.10;;;31.40;39.00;;;;;;20875677;28;20471;-72
2022/08/13 03:53:32;;;;;;;1.08;0.98;;;31.40;39.00;;;;;;20891237;28;20047;-71
2022/08/13 04:03:37;;;;;;;1.02;0.93;;;31.40;39.00;;;;;;20890595;28;20048;-72
2022/08/13 04:13:38;;;;;;;1.50;1.02;;;31.40;38.90;;;;;;20874100;28;20127;-72
2022/08/13 04:23:39;;;;;;;1.33;1.00;;;31.40;38.90;;;;;;20872788;28;20445;-72
2022/08/13 04:33:40;;;;;;;1.17;0.85;;;31.30;38.80;;;;;;20855820;28;20245;-71
2022/08/13 04:43:40;;;;;;;2.97;0.95;;;31.30;38.80;;;;;;20887185;28;20037;-72
2022/08/13 04:53:42;;;;;;;1.58;1.02;;;31.30;38.80;;;;;;20871133;28;20044;-74
2022/08/13 05:03:45;;;;;;;1.50;1.20;;;31.30;38.70;;;;;;20870799;28;20120;-71
2022/08/13 05:13:45;;;;;;;3.10;1.25;;;31.30;38.70;;;;;;20870737;28;20095;-75
2022/08/13 05:23:46;;;;;;;1.98;1.42;;;31.30;38.60;;;;;;20886573;28;20041;-71
2022/08/13 05:33:47;;;;;;;1.50;1.27;;;31.40;38.60;;;;;;20885721;28;20103;-72
2022/08/13 05:43:50;;;;;;;1.35;1.13;;;31.40;38.50;;;;;;20869115;28;20033;-72
2022/08/13 05:53:54;;;;;;;2.95;1.13;;;31.40;38.50;;;;;;20885808;28;20553;-72
2022/08/13 06:03:55;;;;;;;1.90;1.50;;;31.40;38.40;;;;;;20884042;28;20094;-71
2022/08/13 06:13:55;;;;;;;2.97;1.60;;;31.40;38.40;;;;;;20899923;28;20455;-73
2022/08/13 06:23:56;;;;;;;3.38;1.85;;;31.40;38.40;;;;;;20898227;28;20410;-72
2022/08/13 06:33:57;;;;;;;1.90;1.58;;;31.50;38.50;;;;;;20881246;28;20116;-72
2022/08/13 06:43:57;;;;;;;1.60;1.40;;;31.50;38.40;;;;;;20880334;28;20086;-72
2022/08/13 06:53:58;;;;;;;1.48;1.17;;;31.50;38.50;;;;;;20914246;28;20036;-74
2022/08/13 07:03:58;;;;;;;2.30;1.60;;;31.50;38.50;;;;;;20895192;28;20044;-72
2022/08/13 07:14:00;;;;;;;1.65;1.33;;;31.50;38.50;;;;;;20877444;28;20123;-72
2022/08/13 07:24:02;;;;;;;1.38;1.08;;;31.50;38.50;;;;;;20861037;28;20033;-73
2022/08/13 07:34:06;;;;;;;2.20;1.33;;;31.50;38.40;;;;;;20876951;28;20147;-71
2022/08/13 07:44:10;;;;;;;2.10;1.58;;;31.60;38.50;;;;;;20875381;28;20395;-72
2022/08/13 07:54:11;;;;;;;1.63;1.42;;;31.60;38.50;;;;;;20891435;28;20040;-71
2022/08/13 08:04:13;;;;;;;1.88;1.33;;;31.60;38.50;;;;;;20873925;28;20055;-72
2022/08/13 08:14:15;;;;;;;1.92;1.55;;;31.60;38.50;;;;;;20873653;28;20049;-72
2022/08/13 08:24:15;;;;;;;2.23;1.53;;;31.60;38.60;;;;;;20872682;28;20060;-71
2022/08/13 08:34:19;;;;;;;1.88;1.40;;;31.60;38.70;;;;;;20871508;28;20029;-73
2022/08/13 08:44:23;;;;;;;0.98;0.82;;;31.60;38.80;;;;;;20888187;28;20041;-72
2022/08/13 08:54:24;;;;;;;1.98;1.15;;;31.60;38.90;;;;;;20871074;28;20067;-73
2022/08/13 09:04:32;;;;;;;1.92;1.15;;;31.50;38.90;;;;;;20887389;28;20116;-71
2022/08/13 09:14:32;;;;;;;1.40;1.30;;;31.50;39.00;;;;;;20855050;28;20041;-72
2022/08/13 09:24:37;;;;;;;1.67;1.40;;;31.50;39.10;;;;;;20886132;28;20067;-70
2022/08/13 09:34:39;;;;;;;1.92;1.20;;;31.50;39.20;;;;;;20913333;28;20028;-70
2022/08/13 09:44:41;;;;;;;1.57;1.10;;;31.40;39.30;;;;;;20920014;28;20040;-70
2022/08/13 09:54:42;;;;;;;1.57;1.33;;;31.40;39.40;;;;;;20901694;28;20111;-71
2022/08/13 10:04:45;;;;;;;1.17;1.00;;;31.30;39.40;;;;;;20884245;28;20048;-71
2022/08/13 10:14:45;;;;;;;1.60;1.25;;;31.30;39.50;;;;;;20898852;28;20075;-72
2022/08/13 10:24:46;;;;;;;1.30;1.02;;;31.30;39.50;;;;;;20899828;28;20068;-73
2022/08/13 10:34:46;;;;;;;1.30;1.02;;;31.30;39.50;;;;;;20897990;28;20035;-71
2022/08/13 10:44:51;;;;;;;1.33;1.20;;;31.30;39.50;;;;;;20895352;28;20029;-73
2022/08/13 10:54:53;;;;;;;1.40;1.15;;;31.40;39.50;;;;;;20896703;28;20753;-71
2022/08/13 11:04:53;;;;;;;1.27;0.73;;;31.50;39.50;;;;;;20895487;28;20045;-71
2022/08/13 11:14:54;;;;;;;1.83;1.35;;;31.50;39.40;;;;;;20878914;28;20411;-71
2022/08/13 11:24:56;;;;;;;1.23;0.90;;;31.60;39.40;;;;;;20877695;28;20112;-71
2022/08/13 11:34:57;;;;;;;1.55;1.20;;;31.60;39.40;;;;;;20876596;28;20046;-71
2022/08/13 11:44:57;;;;;;;1.60;1.17;;;31.60;39.40;;;;;;20875863;28;20546;-71
2022/08/13 11:54:58;;;;;;;2.33;1.43;;;31.50;39.40;;;;;;20874452;28;20130;-72
2022/08/13 12:04:59;;;;;;;2.15;1.30;;;31.50;39.60;;;;;;20890620;28;20119;-74
2022/08/13 12:14:59;;;;;;;2.13;1.50;;;31.50;39.60;;;;;;20873576;28;20045;-71
2022/08/13 12:25:00;;;;;;;1.88;1.73;;;31.50;39.70;;;;;;20873324;28;20315;-72
2022/08/13 12:35:00;;;;;;;1.60;1.50;;;31.50;39.80;;;;;;20888523;28;20039;-71
2022/08/13 12:45:01;;;;;;;1.80;1.38;;;31.40;39.70;;;;;;20888942;28;20033;-70
2022/08/13 12:55:02;;;;;;;2.47;1.60;;;31.40;39.80;;;;;;20870917;28;20036;-73
2022/08/13 13:05:03;;;;;;;1.65;1.25;;;31.40;39.80;;;;;;20857194;28;20821;-71
2022/08/13 13:15:04;;;;;;;2.53;1.67;;;31.40;39.90;;;;;;20905205;28;20076;-72
2022/08/13 13:25:05;;;;;;;1.88;1.50;;;31.40;39.90;;;;;;20870098;28;20032;-71
2022/08/13 13:35:06;;;;;;;1.65;1.33;;;31.50;39.90;;;;;;20902443;28;20135;-70
2022/08/13 13:45:09;;;;;;;1.60;1.45;;;31.50;39.90;;;;;;20885315;28;20037;-70
2022/08/13 13:55:09;;;;;;;1.40;1.30;;;31.50;40.00;;;;;;20901564;28;20078;-73
2022/08/13 14:05:10;;;;;;;1.90;1.35;;;31.40;40.00;;;;;;20900078;28;20482;-73
2022/08/13 14:15:11;;;;;;;2.17;1.55;;;31.50;40.40;;;;;;20898480;28;20036;-71
2022/08/13 14:25:13;;;;;;;1.38;1.20;;;31.40;40.00;;;;;;20897754;28;20044;-71
2022/08/13 14:35:15;;;;;;;1.83;1.40;;;31.40;40.10;;;;;;20880491;28;20068;-74
2022/08/13 14:55:41;;;;;;;1.50;1.40;;;31.40;40.20;;;;;;20881318;28;20033;-73
2022/08/13 15:05:46;;;;;;;1.45;1.10;;;31.30;40.10;;;;;;20878575;28;20048;-72
2022/08/13 15:15:47;;;;;;;1.83;1.27;;;31.30;40.20;;;;;;20878602;28;20049;-71
2022/08/13 15:25:48;;;;;;;2.33;1.40;;;31.30;40.30;;;;;;20877094;28;20029;-71
2022/08/13 15:35:50;;;;;;;1.33;1.02;;;31.30;40.30;;;;;;20876237;28;20041;-72
2022/08/13 15:45:51;;;;;;;1.57;1.20;;;31.30;40.30;;;;;;20859016;28;20040;-72
2022/08/13 15:55:52;;;;;;;1.63;1.20;;;31.30;40.30;;;;;;20874710;28;20040;-72
2022/08/13 16:05:55;;;;;;;1.55;1.20;;;31.30;40.40;;;;;;20874156;28;20037;-71
2022/08/13 16:15:57;;;;;;;;;;;31.30;40.50;;;;;;20874169;28;20048;-73
2022/08/13 16:25:58;;;;;;;1.20;1.10;;;31.30;40.50;;;;;;20890050;28;19955;-72
2022/08/13 16:35:59;;;;;;;1.58;1.17;;;31.20;40.50;;;;;;20873315;28;20037;-71
2022/08/13 16:46:00;;;;;;;1.85;1.65;;;31.20;40.60;;;;;;20889583;28;20048;-72
2022/08/13 16:56:01;;;;;;;1.47;1.23;;;31.30;40.60;;;;;;20872020;28;20033;-71
2022/08/13 17:16:20;;;;;;;1.48;1.00;;;31.30;40.70;;;;;;20889389;28;20040;-71
2022/08/13 17:26:21;;;;;;;1.00;0.90;;;31.30;40.80;;;;;;20886008;28;20047;-72
2022/08/13 17:36:22;;;;;;;1.30;0.90;;;31.20;40.70;;;;;;20885668;28;20083;-70
2022/08/13 17:46:23;;;;;;;1.40;1.13;;;31.20;40.80;;;;;;20868440;28;20491;-70
2022/08/13 17:56:23;;;;;;;1.65;1.30;;;31.20;40.80;;;;;;20879696;28;20084;-73
2022/08/13 18:06:28;;;;;;;1.08;1.00;;;31.20;40.80;;;;;;20866914;28;20044;-72
2022/08/13 18:16:28;;;;;;;1.15;1.00;;;31.20;40.90;;;;;;20866547;28;20040;-72
2022/08/13 18:26:29;;;;;;;1.20;1.10;;;31.10;41.00;;;;;;20882824;28;20036;-71
2022/08/13 18:36:30;;;;;;;0.93;0.73;;;31.10;41.00;;;;;;20897471;28;20033;-72
2022/08/13 18:46:30;;;;;;;1.00;0.90;;;31.10;41.10;;;;;;20897783;28;20041;-71
2022/08/13 18:56:31;;;;;;;1.20;1.10;;;31.10;41.20;;;;;;20879555;28;20055;-74
2022/08/13 19:06:33;;;;;;;1.55;1.00;;;31.10;41.30;;;;;;20893892;28;20041;-71
2022/08/13 19:16:34;;;;;;;1.15;0.93;;;31.10;41.30;;;;;;20878193;28;20438;-71
2022/08/13 19:26:35;;;;;;;1.23;1.02;;;31.10;41.40;;;;;;20894517;28;20033;-71
2022/08/13 19:36:35;;;;;;;1.67;1.35;;;31.10;41.40;;;;;;20876303;28;20575;-73
2022/08/13 19:46:37;;;;;;;1.38;1.05;;;31.10;41.40;;;;;;20892225;28;20520;-72
2022/08/13 19:56:38;;;;;;;1.15;0.95;;;31.10;41.40;;;;;;20891561;28;20433;-71
2022/08/13 20:06:38;;;;;;;1.47;1.30;;;31.10;41.50;;;;;;20874927;28;20071;-71
2022/08/13 20:16:39;;;;;;;1.25;1.10;;;31.10;41.50;;;;;;20873098;28;20049;-72
2022/08/13 20:26:43;;;;;;;1.52;1.33;;;31.10;41.60;;;;;;20889346;28;20041;-71
2022/08/13 20:36:44;;;;;;;1.45;1.10;;;31.00;41.50;;;;;;20889349;28;20037;-74
2022/08/13 20:46:45;;;;;;;1.67;1.40;;;31.00;41.60;;;;;;20887924;28;20460;-72
2022/08/13 20:56:45;;;;;;;1.77;1.00;;;31.00;41.60;;;;;;20870979;28;20040;-71
2022/08/13 21:06:46;;;;;;;1.45;1.13;;;31.00;41.70;;;;;;20888268;28;20086;-72
2022/08/13 21:16:48;;;;;;;1.77;1.45;;;31.00;41.70;;;;;;20870135;28;20049;-71
2022/08/13 21:26:48;;;;;;;2.35;1.48;;;31.00;41.70;;;;;;20873876;28;20037;-72
2022/08/13 21:36:49;;;;;;;1.90;1.60;;;31.00;41.70;;;;;;20886505;28;20542;-71
2022/08/13 21:46:49;;;;;;;1.88;1.50;;;31.00;41.80;;;;;;20901786;28;20053;-71
2022/08/13 21:56:50;;;;;;;1.73;1.40;;;31.00;41.80;;;;;;20901089;28;20033;-71
2022/08/13 22:06:50;;;;;;;1.92;1.73;;;31.00;41.80;;;;;;20883752;28;20037;-71
2022/08/13 22:16:51;;;;;;;2.10;1.80;;;31.00;41.90;;;;;;20883308;28;20128;-72
2022/08/13 22:26:52;;;;;;;3.20;1.97;;;31.00;41.90;;;;;;20882086;28;20033;-71
2022/08/13 22:36:52;;;;;;;2.90;1.88;;;31.00;42.60;;;;;;20897561;28;20589;-73
2022/08/13 22:46:53;;;;;;;1.83;1.70;;;30.90;41.90;;;;;;20897257;28;20028;-71
2022/08/13 22:56:53;;;;;;;2.10;1.90;;;31.00;42.10;;;;;;20880016;28;20124;-72
2022/08/13 23:06:54;;;;;;;2.30;2.10;;;30.90;42.00;;;;;;20879011;28;20040;-72
2022/08/13 23:16:54;;;;;;;2.63;2.10;;;30.90;42.00;;;;;;20912861;28;20033;-72
2022/08/13 23:26:55;;;;;;;2.70;2.05;;;31.00;42.10;;;;;;20877607;28;20116;-72
2022/08/13 23:36:56;;;;;;;2.28;2.08;;;30.90;42.00;;;;;;20877048;28;20036;-72
2022/08/13 23:46:57;;;;;;;3.63;2.40;;;30.90;42.10;;;;;;20892657;28;20434;-73
2022/08/13 23:56:57;;;;;;;2.70;2.20;;;30.90;42.10;;;;;;20891190;28;20116;-73
